aviador You're here:

LFYR Decoded Metar

ROMORANTIN/PRUNI in FRANCE
Report Time2017-10-22 17:00:00
UTC Time2017-10-22 17:08:46
Flight Rules vfr VFR
Wind270° at 08 kt
W.Decomp.*RWY 23: 6.0 kt HW 5.2 kt RCW
W.Rank270° ranks 11
Current wind is above 270° avg. (6.0)
Visibility9999 m
Phenomena:N/A
Clouds:N/A
Expected CloudBase > 2,000 ft AGL from Temp-Dew spread
CeilingNone
Temp12°C (ISA -2)
Dew Point07°C (72% RH)
AAT8.4°C
QNH1023 hPa
Density Alt-210 ft
Elevation282 ft
Report Wrong Elevation
Raw Report
METAR LFYR 221700Z AUTO 27008KT 240V320 CAVOK 12/07 Q1023=

Extra information for LFYR:More info

Metar Taf Metar & Taf Last 4 Metars F.Rules Stats Wind Profile Meteogram Temp Stats Airport Information Weather charts Add Link Nearby VenuesMetar ALERT Operation Metar Decoded Social comments